OTBD Informações do Aeroporto

Informações da Pista
Pista 15 Comprimento 15000 ft Largura 151 ft
Elevação 35 ft Limite 2460 ft Heading 158
Pista 33 Comprimento 15000 ft Largura 151 ft
Elevação 25 ft Limite 0 ft Heading 338
Frequências do Aeroporto
Tipo APP Nome APP Frequência 121.1 MHZ
Tipo ATIS Nome ATIS Frequência 126.45 MHZ
Tipo GND Nome GND Frequência 118.275 MHZ
Tipo OPS Nome KINGFISH N Frequência 139.5 MHZ
Tipo TWR Nome TWR Frequência 118.9 MHZ
Navaids do Aeroporto
Tipo VOR-DME Nome Doha Frequência 112400 KHZ
Tipo NDB Nome Wk Frequência 323 KHZ
Informações meteorológicas do aeroporto e NOTAM
ADDS - METARS form results

(1927 UTC 05 April 2020)
Data provider http://aviationweather.gov/metar/data/
 
METAR text: OTBD 051900Z AUTO 32009KT CAVOK 27/07 Q1015 NOSIG
Conditions at: OTBD (DOHA INTL AIRPOR, QA) observed 1900 UTC 05 April 2020
Temperature: 27.0°C (81°F)
Dewpoint: 7.0°C (45°F) [RH = 28%]
Pressure (altimeter): 29.97 inches Hg (1015.0 mb)
Winds: from the NW (320 degrees) at 10 MPH (9 knots; 4.6 m/s)
Visibility: 6 or more miles (10+ km)
Ceiling: ceiling and visibility are OK
Clouds: unknown
Weather: no significant weather observed at this time

METAR text: OTBD 051830Z AUTO 33010KT CAVOK 26/08 Q1015 NOSIG
Conditions at: OTBD (DOHA INTL AIRPOR, QA) observed 1830 UTC 05 April 2020
Temperature: 26.0°C (79°F)
Dewpoint: 8.0°C (46°F) [RH = 32%]
Pressure (altimeter): 29.97 inches Hg (1015.0 mb)
Winds: from the NNW (330 degrees) at 12 MPH (10 knots; 5.1 m/s)
Visibility: 6 or more miles (10+ km)
Ceiling: ceiling and visibility are OK
Clouds: unknown
Weather: no significant weather observed at this time

Forecast for: OTBD (DOHA INTL AIRPOR, QA)
Text: TAF OTBD 051713Z 0518/0624 33012KT CAVOK
Forecast period: 1800 to 2000 UTC 05 April 2020
Forecast type: FROM: standard forecast or significant change
Winds: from the NNW (330 degrees) at 14 MPH (12 knots; 6.2 m/s)
Visibility: 6 or more miles 10+ km)
Ceiling: unknown
Clouds: missing
Weather: NSW  (no significant weather)
Text: BECMG 0520/0522 27008KT
Forecast period: 2000 UTC 05 April 2020 to 0600 UTC 06 April 2020
Forecast type: BECOMING: Conditions expected to become as follows by 2200 UTC 05 April 2020
Winds: from the W (270 degrees) at 9 MPH (8 knots; 4.1 m/s)
Visibility: 6 or more miles 10+ km)
Ceiling: unknown
Clouds: missing
Weather: NSW  (no significant weather)
Text: BECMG 0606/0608 34012KT
Forecast period: 0600 UTC 06 April 2020 to 0000 UTC 07 April 2020
Forecast type: BECOMING: Conditions expected to become as follows by 0800 UTC 06 April 2020
Winds: from the NNW (340 degrees) at 14 MPH (12 knots; 6.2 m/s)
Visibility: 6 or more miles 10+ km)
Ceiling: unknown
Clouds: missing
Weather: NSW  (no significant weather)